sensor_id;sensor_type;location;lat;lon;timestamp;P1;durP1;ratioP1;P2;durP2;ratioP2
7661;SDS011;30314;48.184;11.510;2023-05-07T00:00:21;13.20;;;7.70;;
7661;SDS011;30314;48.184;11.510;2023-05-07T00:02:48;9.57;;;7.00;;
7661;SDS011;30314;48.184;11.510;2023-05-07T00:05:14;13.23;;;7.50;;
7661;SDS011;30314;48.184;11.510;2023-05-07T00:07:41;12.63;;;6.60;;
7661;SDS011;30314;48.184;11.510;2023-05-07T00:10:09;13.73;;;7.30;;
7661;SDS011;30314;48.184;11.510;2023-05-07T00:12:37;11.93;;;7.50;;
7661;SDS011;30314;48.184;11.510;2023-05-07T00:15:03;9.70;;;7.10;;
7661;SDS011;30314;48.184;11.510;2023-05-07T00:17:32;14.13;;;8.00;;
7661;SDS011;30314;48.184;11.510;2023-05-07T00:19:59;11.50;;;7.97;;
7661;SDS011;30314;48.184;11.510;2023-05-07T00:22:26;13.63;;;8.60;;
7661;SDS011;30314;48.184;11.510;2023-05-07T00:24:52;10.20;;;7.13;;
7661;SDS011;30314;48.184;11.510;2023-05-07T00:27:19;14.60;;;8.30;;
7661;SDS011;30314;48.184;11.510;2023-05-07T00:29:45;16.40;;;8.00;;
7661;SDS011;30314;48.184;11.510;2023-05-07T00:32:12;11.67;;;7.73;;
7661;SDS011;30314;48.184;11.510;2023-05-07T00:34:40;13.13;;;7.73;;
7661;SDS011;30314;48.184;11.510;2023-05-07T00:37:06;8.20;;;5.70;;
7661;SDS011;30314;48.184;11.510;2023-05-07T00:39:36;10.60;;;7.00;;
7661;SDS011;30314;48.184;11.510;2023-05-07T00:42:02;9.77;;;6.80;;
7661;SDS011;30314;48.184;11.510;2023-05-07T00:44:30;14.37;;;6.73;;
7661;SDS011;30314;48.184;11.510;2023-05-07T00:46:59;9.50;;;7.27;;
7661;SDS011;30314;48.184;11.510;2023-05-07T00:49:37;9.73;;;6.97;;
7661;SDS011;30314;48.184;11.510;2023-05-07T00:52:07;10.37;;;6.80;;
7661;SDS011;30314;48.184;11.510;2023-05-07T00:54:35;10.60;;;6.67;;
7661;SDS011;30314;48.184;11.510;2023-05-07T00:57:02;13.17;;;7.33;;
7661;SDS011;30314;48.184;11.510;2023-05-07T00:59:33;11.07;;;7.30;;
7661;SDS011;30314;48.184;11.510;2023-05-07T01:02:00;11.17;;;7.37;;
7661;SDS011;30314;48.184;11.510;2023-05-07T01:04:26;8.80;;;6.80;;
7661;SDS011;30314;48.184;11.510;2023-05-07T01:06:55;8.37;;;6.60;;
7661;SDS011;30314;48.184;11.510;2023-05-07T01:09:24;10.43;;;7.07;;
7661;SDS011;30314;48.184;11.510;2023-05-07T01:11:51;7.93;;;6.27;;
7661;SDS011;30314;48.184;11.510;2023-05-07T01:14:18;9.80;;;6.70;;
7661;SDS011;30314;48.184;11.510;2023-05-07T01:16:47;8.77;;;6.77;;
7661;SDS011;30314;48.184;11.510;2023-05-07T01:19:16;9.60;;;7.93;;
7661;SDS011;30314;48.184;11.510;2023-05-07T01:21:45;9.87;;;7.27;;
7661;SDS011;30314;48.184;11.510;2023-05-07T01:24:16;9.17;;;6.70;;
7661;SDS011;30314;48.184;11.510;2023-05-07T01:26:44;12.20;;;7.80;;
7661;SDS011;30314;48.184;11.510;2023-05-07T01:29:13;12.53;;;8.93;;
7661;SDS011;30314;48.184;11.510;2023-05-07T01:31:40;12.03;;;7.30;;
7661;SDS011;30314;48.184;11.510;2023-05-07T01:34:08;11.63;;;7.23;;
7661;SDS011;30314;48.184;11.510;2023-05-07T01:36:38;11.53;;;7.50;;
7661;SDS011;30314;48.184;11.510;2023-05-07T01:39:06;10.07;;;7.13;;
7661;SDS011;30314;48.184;11.510;2023-05-07T01:41:34;10.27;;;7.67;;
7661;SDS011;30314;48.184;11.510;2023-05-07T01:44:02;11.53;;;7.73;;
7661;SDS011;30314;48.184;11.510;2023-05-07T01:46:30;11.17;;;6.90;;
7661;SDS011;30314;48.184;11.510;2023-05-07T01:48:57;11.50;;;7.80;;
7661;SDS011;30314;48.184;11.510;2023-05-07T01:51:24;11.77;;;8.20;;
7661;SDS011;30314;48.184;11.510;2023-05-07T01:53:52;9.83;;;7.60;;
7661;SDS011;30314;48.184;11.510;2023-05-07T01:56:19;11.27;;;8.30;;
7661;SDS011;30314;48.184;11.510;2023-05-07T01:58:47;16.57;;;7.90;;
7661;SDS011;30314;48.184;11.510;2023-05-07T02:01:14;12.07;;;9.13;;
7661;SDS011;30314;48.184;11.510;2023-05-07T02:03:42;17.63;;;8.17;;
7661;SDS011;30314;48.184;11.510;2023-05-07T02:06:16;9.87;;;7.67;;
7661;SDS011;30314;48.184;11.510;2023-05-07T02:08:43;14.50;;;7.17;;
7661;SDS011;30314;48.184;11.510;2023-05-07T02:11:11;13.53;;;9.27;;
7661;SDS011;30314;48.184;11.510;2023-05-07T02:13:38;9.83;;;7.60;;
7661;SDS011;30314;48.184;11.510;2023-05-07T02:16:05;11.50;;;8.57;;
7661;SDS011;30314;48.184;11.510;2023-05-07T02:18:32;11.73;;;7.87;;
7661;SDS011;30314;48.184;11.510;2023-05-07T02:20:59;13.07;;;8.83;;
7661;SDS011;30314;48.184;11.510;2023-05-07T02:23:25;13.77;;;9.00;;
7661;SDS011;30314;48.184;11.510;2023-05-07T02:25:52;12.30;;;8.30;;
7661;SDS011;30314;48.184;11.510;2023-05-07T02:28:19;11.27;;;7.93;;
7661;SDS011;30314;48.184;11.510;2023-05-07T02:30:52;11.87;;;7.23;;
7661;SDS011;30314;48.184;11.510;2023-05-07T02:33:19;11.57;;;7.90;;
7661;SDS011;30314;48.184;11.510;2023-05-07T02:35:46;16.50;;;8.17;;
7661;SDS011;30314;48.184;11.510;2023-05-07T02:38:14;11.07;;;7.80;;
7661;SDS011;30314;48.184;11.510;2023-05-07T02:40:42;12.53;;;8.43;;
7661;SDS011;30314;48.184;11.510;2023-05-07T02:43:09;11.10;;;7.80;;
7661;SDS011;30314;48.184;11.510;2023-05-07T02:45:36;11.97;;;8.37;;
7661;SDS011;30314;48.184;11.510;2023-05-07T02:48:05;13.33;;;8.50;;
7661;SDS011;30314;48.184;11.510;2023-05-07T02:50:32;17.10;;;8.83;;
7661;SDS011;30314;48.184;11.510;2023-05-07T02:52:59;13.40;;;7.80;;
7661;SDS011;30314;48.184;11.510;2023-05-07T02:55:25;14.33;;;7.87;;
7661;SDS011;30314;48.184;11.510;2023-05-07T02:57:52;12.63;;;7.30;;
7661;SDS011;30314;48.184;11.510;2023-05-07T03:00:19;14.20;;;8.63;;
7661;SDS011;30314;48.184;11.510;2023-05-07T03:02:53;10.77;;;7.47;;
7661;SDS011;30314;48.184;11.510;2023-05-07T03:05:20;13.80;;;8.83;;
7661;SDS011;30314;48.184;11.510;2023-05-07T03:07:46;11.80;;;7.83;;
7661;SDS011;30314;48.184;11.510;2023-05-07T03:10:14;11.97;;;8.77;;
7661;SDS011;30314;48.184;11.510;2023-05-07T03:12:41;14.60;;;7.53;;
7661;SDS011;30314;48.184;11.510;2023-05-07T03:15:10;11.07;;;7.80;;
7661;SDS011;30314;48.184;11.510;2023-05-07T03:17:38;15.50;;;9.47;;
7661;SDS011;30314;48.184;11.510;2023-05-07T03:20:05;11.30;;;7.30;;
7661;SDS011;30314;48.184;11.510;2023-05-07T03:22:33;10.67;;;8.10;;
7661;SDS011;30314;48.184;11.510;2023-05-07T03:25:00;14.93;;;8.63;;
7661;SDS011;30314;48.184;11.510;2023-05-07T03:27:27;13.60;;;7.70;;
7661;SDS011;30314;48.184;11.510;2023-05-07T03:29:53;12.93;;;8.50;;
7661;SDS011;30314;48.184;11.510;2023-05-07T03:32:20;11.30;;;7.03;;
7661;SDS011;30314;48.184;11.510;2023-05-07T03:34:47;11.40;;;7.00;;
7661;SDS011;30314;48.184;11.510;2023-05-07T03:37:14;7.23;;;6.30;;
7661;SDS011;30314;48.184;11.510;2023-05-07T03:39:41;12.03;;;7.83;;
7661;SDS011;30314;48.184;11.510;2023-05-07T03:42:09;15.87;;;8.10;;
7661;SDS011;30314;48.184;11.510;2023-05-07T03:44:36;9.23;;;7.40;;
7661;SDS011;30314;48.184;11.510;2023-05-07T03:47:03;14.13;;;7.67;;
7661;SDS011;30314;48.184;11.510;2023-05-07T03:49:30;10.57;;;7.47;;
7661;SDS011;30314;48.184;11.510;2023-05-07T03:51:57;12.10;;;7.33;;
7661;SDS011;30314;48.184;11.510;2023-05-07T03:54:24;10.17;;;6.17;;
7661;SDS011;30314;48.184;11.510;2023-05-07T03:56:51;11.53;;;6.90;;
7661;SDS011;30314;48.184;11.510;2023-05-07T03:59:17;12.10;;;7.23;;
7661;SDS011;30314;48.184;11.510;2023-05-07T04:01:46;16.13;;;7.60;;
7661;SDS011;30314;48.184;11.510;2023-05-07T04:04:15;10.87;;;6.83;;
7661;SDS011;30314;48.184;11.510;2023-05-07T04:06:43;14.53;;;7.87;;
7661;SDS011;30314;48.184;11.510;2023-05-07T04:09:09;20.43;;;8.13;;
7661;SDS011;30314;48.184;11.510;2023-05-07T04:11:37;14.80;;;7.40;;
7661;SDS011;30314;48.184;11.510;2023-05-07T04:14:08;10.40;;;6.67;;
7661;SDS011;30314;48.184;11.510;2023-05-07T04:16:35;10.73;;;7.00;;
7661;SDS011;30314;48.184;11.510;2023-05-07T04:19:02;9.00;;;7.30;;
7661;SDS011;30314;48.184;11.510;2023-05-07T04:21:29;9.30;;;7.03;;
7661;SDS011;30314;48.184;11.510;2023-05-07T04:23:57;9.67;;;7.07;;
7661;SDS011;30314;48.184;11.510;2023-05-07T04:26:23;15.80;;;7.53;;
7661;SDS011;30314;48.184;11.510;2023-05-07T04:28:51;11.90;;;8.10;;
7661;SDS011;30314;48.184;11.510;2023-05-07T04:31:17;14.20;;;8.17;;
7661;SDS011;30314;48.184;11.510;2023-05-07T04:33:49;10.80;;;7.70;;
7661;SDS011;30314;48.184;11.510;2023-05-07T04:36:17;13.90;;;8.20;;
7661;SDS011;30314;48.184;11.510;2023-05-07T04:38:50;12.00;;;7.80;;
7661;SDS011;30314;48.184;11.510;2023-05-07T04:41:17;11.83;;;8.60;;
7661;SDS011;30314;48.184;11.510;2023-05-07T04:43:44;18.90;;;8.17;;
7661;SDS011;30314;48.184;11.510;2023-05-07T04:46:13;15.50;;;9.37;;
7661;SDS011;30314;48.184;11.510;2023-05-07T04:48:41;10.30;;;7.43;;
7661;SDS011;30314;48.184;11.510;2023-05-07T04:51:07;12.30;;;7.93;;
7661;SDS011;30314;48.184;11.510;2023-05-07T04:53:34;11.97;;;7.97;;
7661;SDS011;30314;48.184;11.510;2023-05-07T04:56:01;9.23;;;7.10;;
7661;SDS011;30314;48.184;11.510;2023-05-07T04:58:37;11.17;;;7.50;;
7661;SDS011;30314;48.184;11.510;2023-05-07T05:01:04;12.90;;;8.17;;
7661;SDS011;30314;48.184;11.510;2023-05-07T05:03:31;13.30;;;8.40;;
7661;SDS011;30314;48.184;11.510;2023-05-07T05:05:58;12.03;;;8.40;;
7661;SDS011;30314;48.184;11.510;2023-05-07T05:08:29;14.30;;;8.00;;
7661;SDS011;30314;48.184;11.510;2023-05-07T05:10:56;13.50;;;8.87;;
7661;SDS011;30314;48.184;11.510;2023-05-07T05:13:24;12.30;;;8.93;;
7661;SDS011;30314;48.184;11.510;2023-05-07T05:15:50;11.80;;;8.53;;
7661;SDS011;30314;48.184;11.510;2023-05-07T05:18:18;12.63;;;7.90;;
7661;SDS011;30314;48.184;11.510;2023-05-07T05:20:44;13.47;;;8.50;;
7661;SDS011;30314;48.184;11.510;2023-05-07T05:23:11;13.10;;;7.20;;
7661;SDS011;30314;48.184;11.510;2023-05-07T05:25:38;9.67;;;7.40;;
7661;SDS011;30314;48.184;11.510;2023-05-07T05:28:09;11.17;;;8.30;;
7661;SDS011;30314;48.184;11.510;2023-05-07T05:30:35;12.80;;;8.77;;
7661;SDS011;30314;48.184;11.510;2023-05-07T05:33:02;12.00;;;9.77;;
7661;SDS011;30314;48.184;11.510;2023-05-07T05:35:29;13.77;;;9.97;;
7661;SDS011;30314;48.184;11.510;2023-05-07T05:37:56;12.87;;;9.13;;
7661;SDS011;30314;48.184;11.510;2023-05-07T05:40:23;16.73;;;9.93;;
7661;SDS011;30314;48.184;11.510;2023-05-07T05:42:50;14.10;;;9.93;;
7661;SDS011;30314;48.184;11.510;2023-05-07T05:45:17;16.60;;;10.53;;
7661;SDS011;30314;48.184;11.510;2023-05-07T05:47:45;13.80;;;9.13;;
7661;SDS011;30314;48.184;11.510;2023-05-07T05:50:12;12.40;;;8.57;;
7661;SDS011;30314;48.184;11.510;2023-05-07T05:52:39;12.50;;;8.97;;
7661;SDS011;30314;48.184;11.510;2023-05-07T05:55:07;13.47;;;8.83;;
7661;SDS011;30314;48.184;11.510;2023-05-07T05:57:35;9.30;;;8.20;;
7661;SDS011;30314;48.184;11.510;2023-05-07T06:00:02;11.30;;;9.53;;
7661;SDS011;30314;48.184;11.510;2023-05-07T06:02:32;16.67;;;9.53;;
7661;SDS011;30314;48.184;11.510;2023-05-07T06:04:59;11.40;;;8.57;;
7661;SDS011;30314;48.184;11.510;2023-05-07T06:07:26;11.17;;;8.40;;
7661;SDS011;30314;48.184;11.510;2023-05-07T06:09:52;9.13;;;7.20;;
7661;SDS011;30314;48.184;11.510;2023-05-07T06:12:20;15.40;;;7.33;;
7661;SDS011;30314;48.184;11.510;2023-05-07T06:14:48;7.40;;;6.67;;
7661;SDS011;30314;48.184;11.510;2023-05-07T06:17:15;9.80;;;5.30;;
7661;SDS011;30314;48.184;11.510;2023-05-07T06:19:43;8.40;;;6.03;;
7661;SDS011;30314;48.184;11.510;2023-05-07T06:22:11;8.80;;;6.13;;
7661;SDS011;30314;48.184;11.510;2023-05-07T06:24:37;7.50;;;5.80;;
7661;SDS011;30314;48.184;11.510;2023-05-07T06:27:05;7.53;;;6.07;;
7661;SDS011;30314;48.184;11.510;2023-05-07T06:29:32;7.23;;;6.00;;
7661;SDS011;30314;48.184;11.510;2023-05-07T06:32:09;5.77;;;5.17;;
7661;SDS011;30314;48.184;11.510;2023-05-07T06:34:39;8.87;;;5.60;;
7661;SDS011;30314;48.184;11.510;2023-05-07T06:37:07;8.00;;;4.30;;
7661;SDS011;30314;48.184;11.510;2023-05-07T06:39:47;5.73;;;3.87;;
7661;SDS011;30314;48.184;11.510;2023-05-07T06:42:15;5.50;;;4.37;;
7661;SDS011;30314;48.184;11.510;2023-05-07T06:44:45;3.83;;;3.40;;
7661;SDS011;30314;48.184;11.510;2023-05-07T06:47:14;5.60;;;3.93;;
7661;SDS011;30314;48.184;11.510;2023-05-07T06:49:44;7.80;;;4.40;;
7661;SDS011;30314;48.184;11.510;2023-05-07T06:52:14;6.50;;;4.40;;
7661;SDS011;30314;48.184;11.510;2023-05-07T06:54:41;5.20;;;3.77;;
7661;SDS011;30314;48.184;11.510;2023-05-07T06:57:08;4.93;;;3.10;;
7661;SDS011;30314;48.184;11.510;2023-05-07T06:59:35;4.80;;;3.70;;
7661;SDS011;30314;48.184;11.510;2023-05-07T07:02:01;4.60;;;2.83;;
7661;SDS011;30314;48.184;11.510;2023-05-07T07:04:28;6.37;;;3.93;;
7661;SDS011;30314;48.184;11.510;2023-05-07T07:07:03;6.43;;;3.50;;
7661;SDS011;30314;48.184;11.510;2023-05-07T07:09:29;7.00;;;3.70;;
7661;SDS011;30314;48.184;11.510;2023-05-07T07:11:58;5.87;;;3.63;;
7661;SDS011;30314;48.184;11.510;2023-05-07T07:14:24;5.57;;;3.53;;
7661;SDS011;30314;48.184;11.510;2023-05-07T07:16:53;4.37;;;3.27;;
7661;SDS011;30314;48.184;11.510;2023-05-07T07:19:21;4.47;;;3.13;;
7661;SDS011;30314;48.184;11.510;2023-05-07T07:21:51;4.43;;;3.20;;
7661;SDS011;30314;48.184;11.510;2023-05-07T07:24:17;3.47;;;3.03;;
7661;SDS011;30314;48.184;11.510;2023-05-07T07:26:51;3.93;;;2.67;;
7661;SDS011;30314;48.184;11.510;2023-05-07T07:29:19;4.77;;;3.03;;
7661;SDS011;30314;48.184;11.510;2023-05-07T07:31:47;4.03;;;2.60;;
7661;SDS011;30314;48.184;11.510;2023-05-07T07:34:16;5.10;;;2.47;;
7661;SDS011;30314;48.184;11.510;2023-05-07T07:36:43;3.50;;;2.57;;
7661;SDS011;30314;48.184;11.510;2023-05-07T07:39:15;5.20;;;3.23;;
7661;SDS011;30314;48.184;11.510;2023-05-07T07:41:42;4.10;;;2.93;;
7661;SDS011;30314;48.184;11.510;2023-05-07T07:44:09;6.20;;;2.73;;
7661;SDS011;30314;48.184;11.510;2023-05-07T07:46:45;2.90;;;2.60;;
7661;SDS011;30314;48.184;11.510;2023-05-07T07:49:12;4.57;;;3.00;;
7661;SDS011;30314;48.184;11.510;2023-05-07T07:51:40;3.80;;;2.17;;
7661;SDS011;30314;48.184;11.510;2023-05-07T07:54:08;5.07;;;2.73;;
7661;SDS011;30314;48.184;11.510;2023-05-07T07:56:35;4.73;;;2.87;;
7661;SDS011;30314;48.184;11.510;2023-05-07T07:59:04;4.57;;;2.77;;
7661;SDS011;30314;48.184;11.510;2023-05-07T08:01:32;7.40;;;3.30;;
7661;SDS011;30314;48.184;11.510;2023-05-07T08:03:59;3.17;;;2.20;;
7661;SDS011;30314;48.184;11.510;2023-05-07T08:06:31;8.50;;;3.77;;
7661;SDS011;30314;48.184;11.510;2023-05-07T08:08:58;4.03;;;3.40;;
7661;SDS011;30314;48.184;11.510;2023-05-07T08:11:25;4.80;;;3.70;;
7661;SDS011;30314;48.184;11.510;2023-05-07T08:13:53;4.73;;;2.90;;
7661;SDS011;30314;48.184;11.510;2023-05-07T08:16:21;4.03;;;3.00;;
7661;SDS011;30314;48.184;11.510;2023-05-07T08:18:50;8.93;;;3.40;;
7661;SDS011;30314;48.184;11.510;2023-05-07T08:21:17;3.13;;;2.47;;
7661;SDS011;30314;48.184;11.510;2023-05-07T08:23:43;5.40;;;2.90;;
7661;SDS011;30314;48.184;11.510;2023-05-07T08:26:10;3.20;;;2.83;;
7661;SDS011;30314;48.184;11.510;2023-05-07T08:28:37;4.40;;;2.60;;
7661;SDS011;30314;48.184;11.510;2023-05-07T08:31:04;5.47;;;2.67;;
7661;SDS011;30314;48.184;11.510;2023-05-07T08:33:35;3.20;;;2.50;;
7661;SDS011;30314;48.184;11.510;2023-05-07T08:36:01;3.50;;;2.50;;
7661;SDS011;30314;48.184;11.510;2023-05-07T08:38:28;7.20;;;3.37;;
7661;SDS011;30314;48.184;11.510;2023-05-07T08:40:54;5.80;;;3.73;;
7661;SDS011;30314;48.184;11.510;2023-05-07T08:43:22;3.73;;;3.30;;
7661;SDS011;30314;48.184;11.510;2023-05-07T08:45:53;4.77;;;2.80;;
7661;SDS011;30314;48.184;11.510;2023-05-07T08:48:27;3.70;;;2.50;;
7661;SDS011;30314;48.184;11.510;2023-05-07T08:51:03;4.40;;;3.20;;
7661;SDS011;30314;48.184;11.510;2023-05-07T08:53:30;5.73;;;3.23;;
7661;SDS011;30314;48.184;11.510;2023-05-07T08:55:58;8.50;;;2.93;;
7661;SDS011;30314;48.184;11.510;2023-05-07T08:58:27;5.90;;;3.10;;
7661;SDS011;30314;48.184;11.510;2023-05-07T09:00:54;7.50;;;3.80;;
7661;SDS011;30314;48.184;11.510;2023-05-07T09:03:22;9.20;;;3.13;;
7661;SDS011;30314;48.184;11.510;2023-05-07T09:05:53;4.47;;;3.10;;
7661;SDS011;30314;48.184;11.510;2023-05-07T09:08:24;3.93;;;2.40;;
7661;SDS011;30314;48.184;11.510;2023-05-07T09:10:53;2.63;;;2.20;;
7661;SDS011;30314;48.184;11.510;2023-05-07T09:13:21;2.47;;;2.00;;
7661;SDS011;30314;48.184;11.510;2023-05-07T09:15:49;4.13;;;2.60;;
7661;SDS011;30314;48.184;11.510;2023-05-07T09:18:15;2.90;;;2.57;;
7661;SDS011;30314;48.184;11.510;2023-05-07T09:20:45;7.40;;;2.43;;
7661;SDS011;30314;48.184;11.510;2023-05-07T09:23:12;3.93;;;3.00;;
7661;SDS011;30314;48.184;11.510;2023-05-07T09:25:38;2.47;;;2.27;;
7661;SDS011;30314;48.184;11.510;2023-05-07T09:28:14;3.40;;;2.50;;
7661;SDS011;30314;48.184;11.510;2023-05-07T09:30:41;5.17;;;2.17;;
7661;SDS011;30314;48.184;11.510;2023-05-07T09:33:11;4.20;;;2.47;;
7661;SDS011;30314;48.184;11.510;2023-05-07T09:35:41;3.90;;;2.20;;
7661;SDS011;30314;48.184;11.510;2023-05-07T09:38:13;5.70;;;2.17;;
7661;SDS011;30314;48.184;11.510;2023-05-07T09:40:40;4.40;;;2.20;;
7661;SDS011;30314;48.184;11.510;2023-05-07T09:43:13;4.80;;;2.60;;
7661;SDS011;30314;48.184;11.510;2023-05-07T09:45:50;4.93;;;2.60;;
7661;SDS011;30314;48.184;11.510;2023-05-07T09:48:20;2.63;;;1.63;;
7661;SDS011;30314;48.184;11.510;2023-05-07T09:50:49;2.10;;;1.80;;
7661;SDS011;30314;48.184;11.510;2023-05-07T09:53:24;3.20;;;2.30;;
7661;SDS011;30314;48.184;11.510;2023-05-07T09:55:53;4.10;;;1.83;;
7661;SDS011;30314;48.184;11.510;2023-05-07T09:58:21;9.93;;;2.60;;
7661;SDS011;30314;48.184;11.510;2023-05-07T10:00:49;2.70;;;1.97;;
7661;SDS011;30314;48.184;11.510;2023-05-07T10:03:18;3.77;;;1.80;;
7661;SDS011;30314;48.184;11.510;2023-05-07T10:05:58;7.30;;;2.60;;
7661;SDS011;30314;48.184;11.510;2023-05-07T10:08:26;2.83;;;2.60;;
7661;SDS011;30314;48.184;11.510;2023-05-07T10:10:56;2.97;;;2.10;;
7661;SDS011;30314;48.184;11.510;2023-05-07T10:13:25;2.63;;;1.60;;
7661;SDS011;30314;48.184;11.510;2023-05-07T10:15:55;4.10;;;2.97;;
7661;SDS011;30314;48.184;11.510;2023-05-07T10:18:25;3.63;;;2.70;;
7661;SDS011;30314;48.184;11.510;2023-05-07T10:21:07;3.57;;;2.60;;
7661;SDS011;30314;48.184;11.510;2023-05-07T10:23:37;4.00;;;2.50;;
7661;SDS011;30314;48.184;11.510;2023-05-07T10:26:05;3.20;;;2.10;;
7661;SDS011;30314;48.184;11.510;2023-05-07T10:28:37;3.63;;;2.23;;
7661;SDS011;30314;48.184;11.510;2023-05-07T10:31:10;4.70;;;1.97;;
7661;SDS011;30314;48.184;11.510;2023-05-07T10:33:46;4.13;;;2.20;;
7661;SDS011;30314;48.184;11.510;2023-05-07T10:36:16;4.27;;;1.50;;
7661;SDS011;30314;48.184;11.510;2023-05-07T10:38:45;2.63;;;1.77;;
7661;SDS011;30314;48.184;11.510;2023-05-07T10:41:14;2.50;;;2.10;;
7661;SDS011;30314;48.184;11.510;2023-05-07T10:43:44;6.30;;;2.03;;
7661;SDS011;30314;48.184;11.510;2023-05-07T10:46:19;4.60;;;2.50;;
7661;SDS011;30314;48.184;11.510;2023-05-07T10:52:10;5.33;;;2.60;;
7661;SDS011;30314;48.184;11.510;2023-05-07T10:54:45;2.80;;;1.90;;
7661;SDS011;30314;48.184;11.510;2023-05-07T11:06:12;3.00;;;2.20;;
7661;SDS011;30314;48.184;11.510;2023-05-07T11:11:44;4.77;;;2.50;;
7661;SDS011;30314;48.184;11.510;2023-05-07T11:17:13;5.00;;;2.50;;
7661;SDS011;30314;48.184;11.510;2023-05-07T11:19:47;5.80;;;2.43;;
7661;SDS011;30314;48.184;11.510;2023-05-07T11:22:35;5.23;;;2.70;;
7661;SDS011;30314;48.184;11.510;2023-05-07T11:25:21;3.57;;;2.30;;
7661;SDS011;30314;48.184;11.510;2023-05-07T11:28:14;3.27;;;2.60;;
7661;SDS011;30314;48.184;11.510;2023-05-07T11:30:59;3.67;;;2.67;;
7661;SDS011;30314;48.184;11.510;2023-05-07T11:33:26;5.30;;;2.60;;
7661;SDS011;30314;48.184;11.510;2023-05-07T11:35:55;3.40;;;2.40;;
7661;SDS011;30314;48.184;11.510;2023-05-07T11:38:28;4.00;;;2.40;;
7661;SDS011;30314;48.184;11.510;2023-05-07T11:40:57;3.93;;;2.37;;
7661;SDS011;30314;48.184;11.510;2023-05-07T11:43:28;2.50;;;1.90;;
7661;SDS011;30314;48.184;11.510;2023-05-07T11:45:55;4.47;;;2.03;;
7661;SDS011;30314;48.184;11.510;2023-05-07T11:48:38;2.87;;;2.40;;
7661;SDS011;30314;48.184;11.510;2023-05-07T11:51:05;4.00;;;2.67;;
7661;SDS011;30314;48.184;11.510;2023-05-07T11:53:38;3.87;;;2.60;;
7661;SDS011;30314;48.184;11.510;2023-05-07T11:56:07;4.20;;;2.20;;
7661;SDS011;30314;48.184;11.510;2023-05-07T11:58:35;2.80;;;2.40;;
7661;SDS011;30314;48.184;11.510;2023-05-07T12:01:02;6.67;;;1.87;;
7661;SDS011;30314;48.184;11.510;2023-05-07T12:03:29;7.27;;;2.87;;
7661;SDS011;30314;48.184;11.510;2023-05-07T12:06:01;7.30;;;2.20;;
7661;SDS011;30314;48.184;11.510;2023-05-07T12:08:27;5.27;;;1.60;;
7661;SDS011;30314;48.184;11.510;2023-05-07T12:10:54;7.70;;;2.53;;
7661;SDS011;30314;48.184;11.510;2023-05-07T12:13:22;3.70;;;1.63;;
7661;SDS011;30314;48.184;11.510;2023-05-07T12:15:53;2.43;;;1.70;;
7661;SDS011;30314;48.184;11.510;2023-05-07T12:18:21;3.90;;;2.97;;
7661;SDS011;30314;48.184;11.510;2023-05-07T12:20:49;2.07;;;1.83;;
7661;SDS011;30314;48.184;11.510;2023-05-07T12:23:16;3.30;;;2.17;;
7661;SDS011;30314;48.184;11.510;2023-05-07T12:25:43;2.73;;;2.07;;
7661;SDS011;30314;48.184;11.510;2023-05-07T12:28:14;4.47;;;1.63;;
7661;SDS011;30314;48.184;11.510;2023-05-07T12:30:44;2.73;;;1.70;;
7661;SDS011;30314;48.184;11.510;2023-05-07T12:33:16;5.50;;;1.63;;
7661;SDS011;30314;48.184;11.510;2023-05-07T12:35:44;5.93;;;1.90;;
7661;SDS011;30314;48.184;11.510;2023-05-07T12:38:14;5.90;;;2.60;;
7661;SDS011;30314;48.184;11.510;2023-05-07T12:40:46;1.87;;;1.67;;
7661;SDS011;30314;48.184;11.510;2023-05-07T12:43:19;2.40;;;1.23;;
7661;SDS011;30314;48.184;11.510;2023-05-07T12:45:50;2.03;;;1.00;;
7661;SDS011;30314;48.184;11.510;2023-05-07T12:48:18;3.37;;;1.63;;
7661;SDS011;30314;48.184;11.510;2023-05-07T12:50:53;5.23;;;1.43;;
7661;SDS011;30314;48.184;11.510;2023-05-07T12:53:21;2.50;;;1.37;;
7661;SDS011;30314;48.184;11.510;2023-05-07T12:56:00;2.03;;;1.27;;
7661;SDS011;30314;48.184;11.510;2023-05-07T13:00:56;3.77;;;1.20;;
7661;SDS011;30314;48.184;11.510;2023-05-07T13:03:30;1.77;;;1.17;;
7661;SDS011;30314;48.184;11.510;2023-05-07T13:05:59;2.57;;;1.10;;
7661;SDS011;30314;48.184;11.510;2023-05-07T13:08:31;2.60;;;1.60;;
7661;SDS011;30314;48.184;11.510;2023-05-07T13:11:01;1.90;;;1.40;;
7661;SDS011;30314;48.184;11.510;2023-05-07T13:13:33;2.37;;;0.90;;
7661;SDS011;30314;48.184;11.510;2023-05-07T13:16:02;2.73;;;1.03;;
7661;SDS011;30314;48.184;11.510;2023-05-07T13:18:29;2.60;;;1.27;;
7661;SDS011;30314;48.184;11.510;2023-05-07T13:20:57;1.83;;;0.90;;
7661;SDS011;30314;48.184;11.510;2023-05-07T13:23:24;1.70;;;1.10;;
7661;SDS011;30314;48.184;11.510;2023-05-07T13:25:51;1.70;;;1.07;;
7661;SDS011;30314;48.184;11.510;2023-05-07T13:28:20;2.13;;;1.40;;
7661;SDS011;30314;48.184;11.510;2023-05-07T13:30:46;1.73;;;1.07;;
7661;SDS011;30314;48.184;11.510;2023-05-07T13:33:13;4.03;;;1.90;;
7661;SDS011;30314;48.184;11.510;2023-05-07T13:35:40;2.87;;;2.23;;
7661;SDS011;30314;48.184;11.510;2023-05-07T13:38:06;2.33;;;2.10;;
7661;SDS011;30314;48.184;11.510;2023-05-07T13:40:33;7.13;;;1.67;;
7661;SDS011;30314;48.184;11.510;2023-05-07T13:42:59;2.63;;;1.80;;
7661;SDS011;30314;48.184;11.510;2023-05-07T13:45:29;4.37;;;2.80;;
7661;SDS011;30314;48.184;11.510;2023-05-07T13:47:56;2.47;;;1.70;;
7661;SDS011;30314;48.184;11.510;2023-05-07T13:50:23;2.50;;;2.20;;
7661;SDS011;30314;48.184;11.510;2023-05-07T13:52:50;3.33;;;1.90;;
7661;SDS011;30314;48.184;11.510;2023-05-07T13:55:17;1.70;;;1.40;;
7661;SDS011;30314;48.184;11.510;2023-05-07T13:57:45;3.30;;;2.10;;
7661;SDS011;30314;48.184;11.510;2023-05-07T14:00:12;3.40;;;2.10;;
7661;SDS011;30314;48.184;11.510;2023-05-07T14:02:40;5.00;;;2.00;;
7661;SDS011;30314;48.184;11.510;2023-05-07T14:05:07;4.83;;;2.20;;
7661;SDS011;30314;48.184;11.510;2023-05-07T14:07:35;3.23;;;2.37;;
7661;SDS011;30314;48.184;11.510;2023-05-07T14:10:02;4.30;;;3.27;;
7661;SDS011;30314;48.184;11.510;2023-05-07T14:12:29;5.07;;;3.20;;
7661;SDS011;30314;48.184;11.510;2023-05-07T14:14:55;5.10;;;2.30;;
7661;SDS011;30314;48.184;11.510;2023-05-07T14:17:22;3.17;;;2.53;;
7661;SDS011;30314;48.184;11.510;2023-05-07T14:19:51;4.13;;;2.60;;
7661;SDS011;30314;48.184;11.510;2023-05-07T14:22:22;4.30;;;2.40;;
7661;SDS011;30314;48.184;11.510;2023-05-07T14:24:49;4.03;;;2.30;;
7661;SDS011;30314;48.184;11.510;2023-05-07T14:27:31;5.00;;;2.30;;
7661;SDS011;30314;48.184;11.510;2023-05-07T14:29:58;3.20;;;2.40;;
7661;SDS011;30314;48.184;11.510;2023-05-07T14:32:24;2.43;;;2.23;;
7661;SDS011;30314;48.184;11.510;2023-05-07T14:34:51;3.60;;;3.03;;
7661;SDS011;30314;48.184;11.510;2023-05-07T14:37:17;5.53;;;2.63;;
7661;SDS011;30314;48.184;11.510;2023-05-07T14:39:46;2.67;;;2.10;;
7661;SDS011;30314;48.184;11.510;2023-05-07T14:42:15;5.10;;;2.43;;
7661;SDS011;30314;48.184;11.510;2023-05-07T14:44:42;2.20;;;1.60;;
7661;SDS011;30314;48.184;11.510;2023-05-07T14:47:08;5.90;;;2.40;;
7661;SDS011;30314;48.184;11.510;2023-05-07T14:49:35;2.60;;;2.00;;
7661;SDS011;30314;48.184;11.510;2023-05-07T14:52:02;4.97;;;2.60;;
7661;SDS011;30314;48.184;11.510;2023-05-07T14:54:29;3.60;;;2.70;;
7661;SDS011;30314;48.184;11.510;2023-05-07T14:56:55;4.60;;;1.67;;
7661;SDS011;30314;48.184;11.510;2023-05-07T14:59:22;3.57;;;2.13;;
7661;SDS011;30314;48.184;11.510;2023-05-07T15:01:51;5.17;;;2.17;;
7661;SDS011;30314;48.184;11.510;2023-05-07T15:04:18;5.93;;;1.90;;
7661;SDS011;30314;48.184;11.510;2023-05-07T15:06:45;4.03;;;1.93;;
7661;SDS011;30314;48.184;11.510;2023-05-07T15:09:12;2.53;;;1.90;;
7661;SDS011;30314;48.184;11.510;2023-05-07T15:11:39;2.83;;;1.97;;